Time;durP1;ratioP1;P1;durP2;ratioP2;P2;SDS_P1;SDS_P2;PMS_P1;PMS_P2;Temp;Humidity;BMP_temperature;BMP_pressure;BME280_temperature;BME280_humidity;BME280_pressure;Samples;Min_cycle;Max_cycle;Signal;HPM_P1;HPM_P2
2022/09/09 00:01:09;;;;;;;15.70;11.23;;;15.20;99.90;;;;;;5098810;28;20100;-49
2022/09/09 00:04:04;;;;;;;;;;;15.20;99.90;;;;;;5099258;28;20052;-52
2022/09/09 00:06:50;;;;;;;16.85;10.40;;;15.10;99.90;;;;;;5093937;28;20411;-50
2022/09/09 00:09:18;;;;;;;13.40;10.50;;;15.10;99.90;;;;;;5098128;28;20052;-50
2022/09/09 00:11:53;;;;;;;13.73;10.25;;;15.00;99.90;;;;;;5097851;28;20044;-52
2022/09/09 00:14:28;;;;;;;15.82;10.60;;;14.90;99.90;;;;;;5098903;28;20055;-49
2022/09/09 00:17:01;;;;;;;14.77;10.68;;;15.00;99.90;;;;;;5089271;28;20039;-50
2022/09/09 00:19:39;;;;;;;15.98;10.18;;;14.80;99.90;;;;;;5078770;28;20048;-53
2022/09/09 00:22:26;;;;;;;14.40;10.70;;;14.80;99.90;;;;;;5076503;28;20128;-52
2022/09/09 00:24:54;;;;;;;14.25;10.70;;;14.80;99.90;;;;;;5078425;28;20036;-52
2022/09/09 00:27:45;;;;;;;13.77;10.05;;;14.80;99.90;;;;;;5078286;28;20051;-52
2022/09/09 00:30:20;;;;;;;14.32;9.57;;;14.90;99.90;;;;;;5077379;28;20123;-51
2022/09/09 00:32:47;;;;;;;14.35;10.07;;;14.90;99.90;;;;;;5077907;28;20105;-52
2022/09/09 00:35:26;;;;;;;13.77;9.73;;;14.90;99.90;;;;;;5078081;28;20111;-51
2022/09/09 00:37:56;;;;;;;14.07;10.20;;;14.90;99.90;;;;;;5083383;28;20051;-50
2022/09/09 00:40:39;;;;;;;14.10;9.77;;;14.90;99.90;;;;;;5098198;28;20514;-53
2022/09/09 00:43:36;;;;;;;13.23;9.60;;;14.90;99.90;;;;;;5097589;28;20043;-52
2022/09/09 00:46:29;;;;;;;13.68;9.52;;;14.90;99.90;;;;;;5098610;28;20135;-53
2022/09/09 00:48:58;;;;;;;15.35;10.68;;;14.90;99.90;;;;;;5096765;28;20048;-51
2022/09/09 00:52:02;;;;;;;14.65;9.95;;;14.80;99.90;;;;;;5097527;28;20492;-53
2022/09/09 00:54:56;;;;;;;16.92;9.65;;;14.70;99.90;;;;;;5075297;28;20080;-50
2022/09/09 00:57:32;;;;;;;14.43;9.82;;;14.60;99.90;;;;;;5097849;28;20044;-50
2022/09/09 01:00:19;;;;;;;13.70;9.68;;;14.50;99.90;;;;;;5097587;28;20040;-52
2022/09/09 01:03:12;;;;;;;15.50;9.70;;;14.60;99.90;;;;;;5098241;28;20507;-50
2022/09/09 01:05:50;;;;;;;15.60;9.70;;;14.60;99.90;;;;;;5098065;28;20125;-53
2022/09/09 01:08:50;;;;;;;16.02;9.68;;;14.70;99.90;;;;;;5097521;28;20055;-51
2022/09/09 01:11:25;;;;;;;14.90;9.30;;;14.60;99.90;;;;;;5098287;28;20530;-49
2022/09/09 01:14:09;;;;;;;17.77;9.63;;;14.60;99.90;;;;;;5097764;28;20052;-49
2022/09/09 01:16:36;;;;;;;14.77;10.48;;;14.60;99.90;;;;;;5091220;28;20045;-52
2022/09/09 01:19:07;;;;;;;16.23;10.18;;;14.60;99.90;;;;;;5077684;28;20060;-51
2022/09/09 01:21:52;;;;;;;14.32;9.98;;;14.70;99.90;;;;;;5077175;28;20044;-52
2022/09/09 01:24:24;;;;;;;13.45;9.10;;;14.60;99.90;;;;;;5077820;28;20044;-52
2022/09/09 01:26:54;;;;;;;12.80;9.75;;;14.50;99.90;;;;;;5077599;28;20052;-51
2022/09/09 01:29:22;;;;;;;15.35;10.35;;;14.50;99.90;;;;;;5077083;28;20674;-51
2022/09/09 01:31:55;;;;;;;14.43;9.18;;;14.40;99.90;;;;;;5077643;28;20051;-51
2022/09/09 01:34:23;;;;;;;15.02;9.95;;;14.40;99.90;;;;;;5076968;28;20075;-53
2022/09/09 01:37:12;;;;;;;14.27;9.40;;;14.50;99.90;;;;;;5077830;28;20033;-51
2022/09/09 01:39:40;;;;;;;13.30;8.80;;;14.50;99.90;;;;;;5077311;28;20067;-50
2022/09/09 01:42:09;;;;;;;16.13;10.15;;;14.60;99.90;;;;;;5077307;28;20045;-51
2022/09/09 01:44:37;;;;;;;12.88;9.02;;;14.50;99.90;;;;;;5079900;28;20126;-50
2022/09/09 01:47:03;;;;;;;14.65;8.85;;;14.60;99.90;;;;;;5081017;28;20067;-53
2022/09/09 01:49:29;;;;;;;15.65;10.25;;;14.50;99.90;;;;;;5081256;28;20075;-52
2022/09/09 01:51:56;;;;;;;13.25;9.93;;;14.40;99.90;;;;;;5080803;28;20037;-52
2022/09/09 01:54:26;;;;;;;13.70;8.02;;;14.40;99.90;;;;;;5081528;28;20435;-52
2022/09/09 01:57:22;;;;;;;15.75;9.88;;;14.40;99.90;;;;;;5081182;28;20055;-52
2022/09/09 01:59:55;;;;;;;12.68;8.43;;;14.40;99.90;;;;;;5080368;28;20060;-51
2022/09/09 02:02:30;;;;;;;11.35;8.00;;;14.30;99.90;;;;;;5081188;28;20040;-50
2022/09/09 02:05:13;;;;;;;13.05;8.25;;;14.30;99.90;;;;;;5080851;28;20120;-52
2022/09/09 02:07:40;;;;;;;11.45;7.72;;;14.40;99.90;;;;;;5080690;28;20044;-52
2022/09/09 02:10:06;;;;;;;14.32;8.77;;;14.40;99.90;;;;;;5080838;28;20073;-51
2022/09/09 02:12:31;;;;;;;16.23;9.48;;;14.50;99.90;;;;;;5080555;28;20052;-51
2022/09/09 02:15:05;;;;;;;11.98;8.18;;;14.30;99.90;;;;;;5081029;28;20044;-51
2022/09/09 02:17:36;;;;;;;13.63;8.30;;;14.40;99.90;;;;;;5094538;28;20048;-52
2022/09/09 02:20:07;;;;;;;12.20;7.75;;;14.40;99.90;;;;;;5101549;28;20075;-49
2022/09/09 02:22:35;;;;;;;12.48;8.45;;;14.30;99.90;;;;;;5100882;28;20036;-49
2022/09/09 02:25:01;;;;;;;12.98;9.75;;;14.30;99.90;;;;;;5100492;28;20047;-49
2022/09/09 02:27:27;;;;;;;15.77;8.90;;;14.30;99.90;;;;;;5100862;28;20112;-50
2022/09/09 02:29:56;;;;;;;16.50;9.00;;;14.30;99.90;;;;;;5099315;28;20056;-50
2022/09/09 02:32:24;;;;;;;14.02;9.35;;;14.30;99.90;;;;;;5101267;28;20101;-49
2022/09/09 02:34:57;;;;;;;14.25;9.00;;;14.30;99.90;;;;;;5100347;28;20040;-52
2022/09/09 02:37:28;;;;;;;14.02;9.68;;;14.30;99.90;;;;;;5100579;28;20055;-52
2022/09/09 02:39:54;;;;;;;14.68;9.30;;;14.20;99.90;;;;;;5099403;28;20048;-51
2022/09/09 02:42:20;;;;;;;17.25;9.77;;;14.40;99.90;;;;;;5100156;28;20032;-52
2022/09/09 02:44:46;;;;;;;14.35;10.02;;;14.40;99.90;;;;;;5099127;28;20074;-52
2022/09/09 02:47:34;;;;;;;15.73;10.38;;;14.40;99.90;;;;;;5099695;28;20036;-50
2022/09/09 02:50:25;;;;;;;18.65;9.93;;;14.40;99.90;;;;;;5100756;28;20032;-51
2022/09/09 02:53:10;;;;;;;14.07;10.30;;;14.30;99.90;;;;;;5100508;28;20052;-50
2022/09/09 02:55:36;;;;;;;14.70;10.25;;;14.50;99.90;;;;;;5098726;28;20048;-50
2022/09/09 02:58:05;;;;;;;17.50;10.68;;;14.40;99.90;;;;;;5099169;28;20044;-50
2022/09/09 03:00:32;;;;;;;15.77;10.90;;;14.50;99.90;;;;;;5099831;28;20071;-50
2022/09/09 03:02:58;;;;;;;16.83;10.55;;;14.40;99.90;;;;;;5099196;28;20114;-51
2022/09/09 03:05:25;;;;;;;17.33;10.75;;;14.50;99.90;;;;;;5098936;28;20048;-51
2022/09/09 03:07:50;;;;;;;15.77;10.88;;;14.30;99.90;;;;;;5099721;28;20059;-52
2022/09/09 03:10:17;;;;;;;14.73;10.82;;;14.50;99.90;;;;;;5100078;28;20048;-52
2022/09/09 03:12:43;;;;;;;17.00;9.90;;;14.50;99.90;;;;;;5099308;28;20036;-51
2022/09/09 03:15:09;;;;;;;16.25;11.32;;;14.50;99.90;;;;;;5098939;28;20112;-50
2022/09/09 03:17:35;;;;;;;14.48;10.20;;;14.60;99.90;;;;;;5084697;28;20040;-50
2022/09/09 03:20:03;;;;;;;15.00;10.75;;;14.50;99.90;;;;;;5079864;28;20476;-51
2022/09/09 03:22:29;;;;;;;14.30;10.00;;;14.50;99.90;;;;;;5079666;28;20114;-52
2022/09/09 03:24:55;;;;;;;17.83;10.35;;;14.70;99.90;;;;;;5079234;28;20072;-50
2022/09/09 03:27:20;;;;;;;17.42;10.88;;;14.60;99.90;;;;;;5077958;28;20044;-52
2022/09/09 03:29:46;;;;;;;17.63;10.35;;;14.60;99.90;;;;;;5079078;28;20054;-52
2022/09/09 03:32:12;;;;;;;16.20;10.30;;;14.70;99.90;;;;;;5079571;28;20056;-49
2022/09/09 03:34:42;;;;;;;16.13;11.65;;;14.70;99.90;;;;;;5078970;28;20028;-52
2022/09/09 03:37:07;;;;;;;17.23;11.27;;;14.50;99.90;;;;;;5079538;28;20515;-49
2022/09/09 03:39:33;;;;;;;14.95;10.65;;;14.50;99.90;;;;;;5098847;28;20047;-51
2022/09/09 03:41:58;;;;;;;16.20;10.73;;;14.40;99.90;;;;;;5099073;28;20075;-51
2022/09/09 03:44:24;;;;;;;17.77;9.90;;;14.50;99.90;;;;;;5099473;28;20442;-52
2022/09/09 03:46:50;;;;;;;13.98;10.88;;;14.60;99.90;;;;;;5098873;28;20035;-51
2022/09/09 03:49:16;;;;;;;16.05;11.10;;;14.60;99.90;;;;;;5099404;28;20040;-52
2022/09/09 03:51:42;;;;;;;14.57;9.82;;;14.50;99.90;;;;;;5097317;28;20162;-52
2022/09/09 03:54:10;;;;;;;16.63;10.07;;;14.50;99.90;;;;;;5099710;28;20052;-50
2022/09/09 03:56:36;;;;;;;16.25;10.60;;;14.60;99.90;;;;;;5097395;28;20032;-50
2022/09/09 03:59:03;;;;;;;15.82;10.85;;;14.60;99.90;;;;;;5097427;28;20535;-52
2022/09/09 04:01:29;;;;;;;15.18;10.40;;;14.40;99.90;;;;;;5099212;28;20085;-50
2022/09/09 04:03:57;;;;;;;14.75;10.20;;;14.60;99.90;;;;;;5098488;28;20040;-52
2022/09/09 04:06:24;;;;;;;15.57;9.80;;;14.60;99.90;;;;;;5098905;28;20075;-52
2022/09/09 04:08:49;;;;;;;13.38;8.88;;;14.70;99.90;;;;;;5097870;28;20131;-52
2022/09/09 04:11:15;;;;;;;16.23;9.50;;;14.60;99.90;;;;;;5099383;28;20048;-50
2022/09/09 04:13:41;;;;;;;13.85;8.35;;;14.70;99.90;;;;;;5098743;28;20071;-51
2022/09/09 04:16:10;;;;;;;13.02;8.60;;;14.60;99.90;;;;;;5096288;28;20061;-52
2022/09/09 04:18:35;;;;;;;11.75;8.48;;;14.60;99.90;;;;;;5078519;28;20329;-52
2022/09/09 04:21:01;;;;;;;16.08;9.27;;;14.60;99.90;;;;;;5077998;28;20051;-51
2022/09/09 04:23:30;;;;;;;12.07;8.30;;;14.60;99.90;;;;;;5076947;28;20077;-52
2022/09/09 04:25:58;;;;;;;11.88;8.57;;;14.60;99.90;;;;;;5077812;28;20070;-49
2022/09/09 04:28:26;;;;;;;13.82;9.32;;;14.70;99.90;;;;;;5078589;28;20040;-51
2022/09/09 04:30:52;;;;;;;13.98;8.20;;;14.70;99.90;;;;;;5078263;28;20042;-50
2022/09/09 04:33:18;;;;;;;14.20;8.52;;;14.70;99.90;;;;;;5078175;28;20124;-52
2022/09/09 04:35:49;;;;;;;13.10;7.55;;;14.80;99.90;;;;;;5078421;28;20045;-53
2022/09/09 04:38:16;;;;;;;12.07;7.65;;;14.70;99.90;;;;;;5086371;28;20081;-52
2022/09/09 04:40:49;;;;;;;13.07;7.80;;;14.60;99.90;;;;;;5098543;28;20055;-52
2022/09/09 04:43:15;;;;;;;13.90;7.32;;;14.70;99.90;;;;;;5097754;28;20044;-52
2022/09/09 04:45:48;;;;;;;11.80;7.10;;;14.60;99.90;;;;;;5098654;28;20056;-50
2022/09/09 04:48:14;;;;;;;12.38;7.55;;;14.90;99.90;;;;;;5098343;28;20499;-52
2022/09/09 04:50:42;;;;;;;12.30;7.32;;;14.80;99.90;;;;;;5097889;28;20075;-52
2022/09/09 04:53:08;;;;;;;13.27;8.07;;;14.80;99.90;;;;;;5098211;28;20044;-51
2022/09/09 04:55:34;;;;;;;12.90;7.75;;;14.80;99.90;;;;;;5097561;28;20066;-52
2022/09/09 04:58:08;;;;;;;13.45;8.05;;;14.60;99.90;;;;;;5098198;28;20123;-50
2022/09/09 05:00:35;;;;;;;12.90;8.25;;;14.60;99.90;;;;;;5097715;28;20056;-50
2022/09/09 05:03:05;;;;;;;14.20;7.82;;;14.70;99.90;;;;;;5098387;28;20040;-49
2022/09/09 05:05:34;;;;;;;18.70;8.38;;;14.50;99.90;;;;;;5098197;28;20052;-51
2022/09/09 05:08:07;;;;;;;14.68;8.15;;;14.50;99.90;;;;;;5096088;28;20048;-52
2022/09/09 05:10:34;;;;;;;12.48;7.78;;;14.60;99.90;;;;;;5098022;28;20408;-50
2022/09/09 05:13:00;;;;;;;12.60;7.82;;;14.70;99.90;;;;;;5097570;28;20540;-51
2022/09/09 05:15:25;;;;;;;15.77;8.68;;;14.70;99.90;;;;;;5098186;28;20039;-48
2022/09/09 05:17:52;;;;;;;11.82;7.57;;;14.70;99.90;;;;;;5080637;28;20043;-51
2022/09/09 05:20:18;;;;;;;13.43;8.15;;;14.80;99.90;;;;;;5084067;28;20082;-51
2022/09/09 05:22:44;;;;;;;12.95;8.60;;;14.50;99.90;;;;;;5084525;28;20041;-50
2022/09/09 05:25:10;;;;;;;12.88;8.00;;;14.40;99.90;;;;;;5084108;28;20048;-51
2022/09/09 05:27:35;;;;;;;12.15;8.48;;;14.70;99.90;;;;;;5084393;28;20037;-50
2022/09/09 05:30:01;;;;;;;15.98;8.80;;;14.60;99.90;;;;;;5083649;28;20040;-53
2022/09/09 05:32:27;;;;;;;16.63;9.38;;;14.60;99.90;;;;;;5084289;28;20063;-52
2022/09/09 05:34:53;;;;;;;13.57;8.55;;;14.60;99.90;;;;;;5083880;28;20090;-51
2022/09/09 05:37:19;;;;;;;14.85;9.02;;;14.70;99.90;;;;;;5085591;28;20056;-52
2022/09/09 05:39:45;;;;;;;14.18;9.05;;;14.70;99.90;;;;;;5103139;28;20043;-50
2022/09/09 05:42:10;;;;;;;14.15;8.77;;;14.70;99.90;;;;;;5104112;28;20048;-50
2022/09/09 05:44:37;;;;;;;14.75;9.60;;;14.70;99.90;;;;;;5104560;28;20043;-49
2022/09/09 05:47:03;;;;;;;15.98;9.63;;;14.60;99.90;;;;;;5103678;28;20044;-53
2022/09/09 05:49:28;;;;;;;16.73;9.77;;;14.60;99.90;;;;;;5104682;28;20048;-55
2022/09/09 05:51:54;;;;;;;16.95;9.82;;;14.60;99.90;;;;;;5103948;28;20427;-50
2022/09/09 05:54:20;;;;;;;18.30;10.63;;;14.70;99.90;;;;;;5104604;28;20032;-50
2022/09/09 05:56:45;;;;;;;14.25;9.38;;;14.50;99.90;;;;;;5104264;28;20032;-52
2022/09/09 05:59:12;;;;;;;15.07;9.68;;;14.70;99.90;;;;;;5104047;28;20044;-52
2022/09/09 06:01:42;;;;;;;14.90;9.98;;;14.70;99.90;;;;;;5104334;28;20040;-51
2022/09/09 06:04:08;;;;;;;15.90;10.48;;;14.70;99.90;;;;;;5103690;28;20115;-53
2022/09/09 06:06:39;;;;;;;18.75;11.50;;;14.80;99.90;;;;;;5104532;28;20051;-50
2022/09/09 06:09:09;;;;;;;17.23;10.23;;;14.60;99.90;;;;;;5103720;28;20036;-52
2022/09/09 06:11:36;;;;;;;17.17;11.25;;;14.60;99.90;;;;;;5104406;28;20048;-51
2022/09/09 06:14:03;;;;;;;17.75;10.60;;;14.70;99.90;;;;;;5104281;28;20035;-51
2022/09/09 06:16:29;;;;;;;16.65;10.52;;;14.60;99.90;;;;;;5098184;28;20495;-52
2022/09/09 06:18:57;;;;;;;19.58;10.85;;;14.70;99.90;;;;;;5083786;28;20041;-50
2022/09/09 06:21:36;;;;;;;17.98;11.88;;;14.70;99.90;;;;;;5083290;28;20041;-52
2022/09/09 06:24:03;;;;;;;15.02;10.90;;;14.70;99.90;;;;;;5084162;28;20048;-52
2022/09/09 06:26:37;;;;;;;17.73;11.32;;;14.60;99.90;;;;;;5082211;28;20071;-50
2022/09/09 06:29:04;;;;;;;17.08;11.25;;;14.60;99.90;;;;;;5083501;28;20090;-51
2022/09/09 06:31:31;;;;;;;18.90;11.07;;;14.80;99.90;;;;;;5080851;28;20053;-50
2022/09/09 06:33:58;;;;;;;19.35;11.30;;;14.80;99.90;;;;;;5080130;28;20079;-50
2022/09/09 06:36:30;;;;;;;16.55;10.95;;;14.80;99.90;;;;;;5079303;28;20087;-51
2022/09/09 06:38:56;;;;;;;;;;;14.80;99.90;;;;;;5094648;28;20047;-52
2022/09/09 06:41:26;;;;;;;20.60;11.27;;;14.80;99.90;;;;;;5101105;28;20303;-51
2022/09/09 06:43:51;;;;;;;15.35;9.73;;;14.80;99.90;;;;;;5099284;28;20055;-50
2022/09/09 06:46:21;;;;;;;15.70;10.02;;;14.90;99.90;;;;;;5098822;28;20044;-53
2022/09/09 06:48:47;;;;;;;15.45;10.48;;;15.00;99.90;;;;;;5100528;28;20294;-52
2022/09/09 06:51:22;;;;;;;14.43;10.07;;;15.00;99.90;;;;;;5100077;28;20051;-52
2022/09/09 06:53:50;;;;;;;14.43;10.05;;;15.10;99.90;;;;;;5100717;28;20471;-52
2022/09/09 06:56:16;;;;;;;15.18;9.60;;;15.20;99.90;;;;;;5099955;28;20040;-53
2022/09/09 06:58:45;;;;;;;13.27;9.57;;;15.20;99.90;;;;;;5100472;28;20639;-50
2022/09/09 07:01:23;;;;;;;15.13;8.80;;;15.10;99.90;;;;;;5100566;28;20040;-52
2022/09/09 07:03:50;;;;;;;13.38;8.32;;;15.30;99.90;;;;;;5099816;28;20052;-49
2022/09/09 07:06:23;;;;;;;16.25;9.27;;;15.30;99.90;;;;;;5100223;28;20055;-50
2022/09/09 07:08:53;;;;;;;13.10;8.13;;;15.30;99.90;;;;;;5099192;28;20043;-52
2022/09/09 07:11:21;;;;;;;12.07;7.68;;;15.20;99.90;;;;;;5100683;28;20147;-50
2022/09/09 07:13:47;;;;;;;14.30;8.90;;;15.30;99.90;;;;;;5098771;28;20044;-52
2022/09/09 07:16:16;;;;;;;15.32;8.73;;;15.30;99.90;;;;;;5096614;28;20032;-50
2022/09/09 07:18:42;;;;;;;14.27;8.50;;;15.30;99.90;;;;;;5079834;28;20051;-50
2022/09/09 07:21:11;;;;;;;14.35;9.00;;;15.30;99.90;;;;;;5079249;28;20040;-53
2022/09/09 07:23:38;;;;;;;15.43;9.38;;;15.30;99.90;;;;;;5079859;28;20041;-52
2022/09/09 07:26:13;;;;;;;14.90;8.60;;;15.30;99.90;;;;;;5079202;28;20652;-49
2022/09/09 07:28:39;;;;;;;14.10;8.43;;;15.40;99.90;;;;;;5079740;28;20064;-52
2022/09/09 07:31:06;;;;;;;14.18;8.18;;;15.40;99.90;;;;;;5079549;28;20135;-52
2022/09/09 07:33:34;;;;;;;16.25;8.93;;;15.50;99.90;;;;;;5079227;28;20040;-49
2022/09/09 07:36:08;;;;;;;13.75;9.20;;;15.50;99.90;;;;;;5078210;28;20041;-52
2022/09/09 07:38:51;;;;;;;13.73;8.68;;;15.40;99.90;;;;;;5090237;28;20529;-52
2022/09/09 07:41:19;;;;;;;11.82;8.18;;;15.60;99.90;;;;;;5099494;28;20055;-52
2022/09/09 07:43:47;;;;;;;13.52;8.30;;;15.50;99.90;;;;;;5099344;28;20044;-52
2022/09/09 07:46:15;;;;;;;14.50;8.75;;;15.70;99.90;;;;;;5099077;28;20035;-50
2022/09/09 07:48:52;;;;;;;11.88;7.85;;;15.70;99.90;;;;;;5099445;28;20040;-51
2022/09/09 07:51:22;;;;;;;13.15;8.15;;;15.80;99.90;;;;;;5098702;28;20036;-53
2022/09/09 07:53:51;;;;;;;14.45;9.07;;;15.80;99.90;;;;;;5099679;28;20123;-53
2022/09/09 07:56:18;;;;;;;14.23;8.50;;;15.70;99.90;;;;;;5097616;28;20047;-52
2022/09/09 07:58:48;;;;;;;12.40;8.18;;;15.70;99.90;;;;;;5099063;28;20048;-51
2022/09/09 08:01:23;;;;;;;15.93;8.10;;;15.80;99.90;;;;;;5099221;28;20056;-52
2022/09/09 08:03:55;;;;;;;12.30;7.97;;;15.90;99.90;;;;;;5098854;28;20043;-53
2022/09/09 08:06:22;;;;;;;13.50;7.47;;;15.70;99.90;;;;;;5099084;28;20483;-52
2022/09/09 08:08:51;;;;;;;13.43;8.20;;;15.90;99.90;;;;;;5098035;28;20133;-50
2022/09/09 08:11:17;;;;;;;10.70;8.02;;;15.80;99.90;;;;;;5099429;28;20044;-52
2022/09/09 08:13:44;;;;;;;11.98;7.65;;;15.80;99.90;;;;;;5098792;28;20032;-50
2022/09/09 08:16:25;;;;;;;11.32;7.40;;;16.10;99.90;;;;;;5095741;28;20475;-52
2022/09/09 08:18:52;;;;;;;12.87;6.90;;;15.90;99.90;;;;;;5078523;28;20044;-49
2022/09/09 08:21:21;;;;;;;13.10;7.70;;;16.10;99.90;;;;;;5077676;28;20045;-50
2022/09/09 08:23:48;;;;;;;11.75;6.90;;;16.00;99.90;;;;;;5078788;28;20063;-53
2022/09/09 08:26:22;;;;;;;12.13;7.32;;;16.10;99.90;;;;;;5077936;28;20045;-50
2022/09/09 08:28:51;;;;;;;11.85;7.30;;;16.10;99.90;;;;;;5078447;28;20147;-49
2022/09/09 08:31:23;;;;;;;11.68;6.90;;;16.20;99.90;;;;;;5076811;28;20087;-50
2022/09/09 08:33:49;;;;;;;13.85;6.93;;;16.30;99.90;;;;;;5077718;28;20412;-50
2022/09/09 08:36:18;;;;;;;10.70;7.10;;;16.30;99.90;;;;;;5078400;28;20033;-52
2022/09/09 08:38:47;;;;;;;10.43;6.45;;;16.50;99.90;;;;;;5088989;28;20407;-52
2022/09/09 08:41:42;;;;;;;11.27;6.47;;;16.50;99.90;;;;;;5097495;28;20423;-50
2022/09/09 08:44:14;;;;;;;12.23;6.25;;;16.50;99.90;;;;;;5098298;28;20048;-51
2022/09/09 08:47:01;;;;;;;10.68;6.43;;;16.60;99.90;;;;;;5096237;28;20071;-53
2022/09/09 08:50:06;;;;;;;11.27;6.55;;;16.70;99.90;;;;;;5098709;28;20043;-50
2022/09/09 08:52:38;;;;;;;11.13;6.97;;;16.80;99.90;;;;;;5097875;28;20056;-52
2022/09/09 08:55:29;;;;;;;15.23;7.10;;;16.80;99.90;;;;;;5097101;28;20085;-50
2022/09/09 08:57:57;;;;;;;11.93;6.38;;;16.70;99.90;;;;;;5096788;28;20036;-52
2022/09/09 09:00:35;;;;;;;10.43;6.30;;;16.80;99.90;;;;;;5097576;28;20534;-50
2022/09/09 09:03:26;;;;;;;11.30;6.18;;;16.90;99.90;;;;;;5098190;28;20044;-50
2022/09/09 09:06:05;;;;;;;11.70;6.15;;;16.90;99.90;;;;;;5093978;28;20059;-50
2022/09/09 09:08:37;;;;;;;9.73;5.78;;;17.00;99.90;;;;;;5097286;28;20044;-52
2022/09/09 09:11:05;;;;;;;8.48;5.82;;;16.90;99.90;;;;;;5098069;28;20032;-51
2022/09/09 09:13:40;;;;;;;13.23;6.47;;;16.90;99.90;;;;;;5097971;28;20040;-49
2022/09/09 09:16:22;;;;;;;9.68;5.45;;;17.00;99.90;;;;;;5095393;28;20051;-52
2022/09/09 09:18:47;;;;;;;;;;;17.10;99.90;;;;;;5078403;28;20041;-52
2022/09/09 09:21:21;;;;;;;9.07;5.80;;;17.20;99.90;;;;;;5077245;28;19935;-52
2022/09/09 09:23:59;;;;;;;10.52;5.60;;;17.20;99.90;;;;;;5078075;28;20128;-52
2022/09/09 09:26:35;;;;;;;13.63;5.03;;;17.10;99.90;;;;;;5077515;28;20040;-52
2022/09/09 09:29:12;;;;;;;11.68;5.40;;;17.40;99.90;;;;;;5077648;28;20097;-51
2022/09/09 09:31:38;;;;;;;10.90;5.78;;;17.40;99.90;;;;;;5077783;28;20053;-51
2022/09/09 09:34:04;;;;;;;8.90;5.10;;;17.40;99.90;;;;;;5076782;28;20051;-52
2022/09/09 09:36:46;;;;;;;9.27;4.65;;;17.60;99.90;;;;;;5077744;28;20040;-52
2022/09/09 09:39:28;;;;;;;10.75;5.13;;;17.90;99.90;;;;;;5093801;28;20040;-51
2022/09/09 09:41:54;;;;;;;12.23;5.38;;;18.00;99.90;;;;;;5097606;28;20044;-50
2022/09/09 09:44:31;;;;;;;10.32;4.20;;;17.90;99.90;;;;;;5097679;28;20041;-51
2022/09/09 09:47:15;;;;;;;8.57;3.80;;;18.10;99.90;;;;;;5097115;28;20040;-53
2022/09/09 09:49:59;;;;;;;9.63;4.00;;;18.10;99.90;;;;;;5098051;28;20051;-52
2022/09/09 09:52:30;;;;;;;9.55;3.80;;;18.40;99.90;;;;;;5097885;28;20044;-52
2022/09/09 09:54:58;;;;;;;12.05;3.60;;;18.40;99.90;;;;;;5097056;28;20051;-51
2022/09/09 09:57:30;;;;;;;11.80;3.88;;;18.60;99.90;;;;;;5097520;28;20130;-51
2022/09/09 10:00:17;;;;;;;10.90;3.67;;;18.70;99.90;;;;;;5096727;28;20089;-52
2022/09/09 10:02:45;;;;;;;12.80;4.22;;;18.70;99.90;;;;;;5098006;28;20050;-49
2022/09/09 10:05:15;;;;;;;10.45;3.40;;;18.70;99.90;;;;;;5098666;28;20055;-52
2022/09/09 10:07:44;;;;;;;12.55;3.55;;;18.90;99.90;;;;;;5101023;28;20074;-50
2022/09/09 10:10:25;;;;;;;9.93;3.47;;;18.70;99.90;;;;;;5100980;28;20040;-51
2022/09/09 10:13:03;;;;;;;8.48;3.20;;;18.90;99.90;;;;;;5100480;28;20662;-52
2022/09/09 10:15:52;;;;;;;13.15;3.30;;;18.90;99.90;;;;;;5101545;28;20072;-50
2022/09/09 10:18:37;;;;;;;9.80;3.00;;;18.90;99.90;;;;;;5080905;28;20040;-52
2022/09/09 10:21:16;;;;;;;8.75;2.95;;;18.90;99.90;;;;;;5080247;28;20044;-51
2022/09/09 10:24:03;;;;;;;7.53;2.63;;;18.70;99.90;;;;;;5081103;28;20079;-52
2022/09/09 10:26:44;;;;;;;10.15;3.17;;;18.80;99.90;;;;;;5080524;28;20048;-53
2022/09/09 10:29:32;;;;;;;11.20;2.67;;;18.70;99.90;;;;;;5080165;28;20051;-52
2022/09/09 10:32:22;;;;;;;11.38;2.90;;;18.90;99.90;;;;;;5079306;28;20056;-52
2022/09/09 10:35:02;;;;;;;9.35;3.20;;;18.80;99.90;;;;;;5080041;28;20040;-53
2022/09/09 10:37:43;;;;;;;11.48;2.72;;;18.70;99.90;;;;;;5082720;28;20081;-51
2022/09/09 10:40:19;;;;;;;9.07;2.60;;;18.80;99.90;;;;;;5100546;28;20048;-52
2022/09/09 10:42:46;;;;;;;11.05;3.13;;;18.90;99.90;;;;;;5099824;28;20032;-51
2022/09/09 10:45:46;;;;;;;9.80;2.92;;;19.00;99.90;;;;;;5100931;28;20100;-51
2022/09/09 10:48:26;;;;;;;9.70;2.55;;;18.90;99.90;;;;;;5099617;28;20488;-50
2022/09/09 10:51:01;;;;;;;11.38;3.55;;;18.90;99.90;;;;;;5100217;28;20462;-50
2022/09/09 10:53:53;;;;;;;9.55;3.50;;;18.70;99.90;;;;;;5099491;28;20048;-52
2022/09/09 10:56:23;;;;;;;10.90;3.22;;;18.80;99.90;;;;;;5100319;28;20067;-52
2022/09/09 10:58:49;;;;;;;12.68;3.67;;;19.20;99.90;;;;;;5098821;28;20576;-51
2022/09/09 11:01:23;;;;;;;9.57;3.28;;;19.40;99.90;;;;;;5100454;28;20052;-52
2022/09/09 11:03:58;;;;;;;9.73;2.90;;;19.30;99.90;;;;;;5100031;28;20040;-51
2022/09/09 11:06:34;;;;;;;11.10;3.42;;;19.20;99.90;;;;;;5100462;28;20036;-52
2022/09/09 11:09:01;;;;;;;9.90;3.28;;;19.10;99.90;;;;;;5099224;28;20048;-50
2022/09/09 11:11:49;;;;;;;7.57;2.13;;;19.00;99.90;;;;;;5100325;28;20099;-50
2022/09/09 11:14:22;;;;;;;7.97;2.15;;;19.20;99.90;;;;;;5100331;28;20047;-52
2022/09/09 11:16:53;;;;;;;9.55;2.40;;;19.30;99.90;;;;;;5090223;28;20055;-52
2022/09/09 11:19:26;;;;;;;6.88;2.10;;;19.60;99.90;;;;;;5080011;28;20045;-50
2022/09/09 11:21:54;;;;;;;9.25;2.25;;;19.50;99.90;;;;;;5079343;28;20457;-52
2022/09/09 11:24:33;;;;;;;7.68;2.08;;;19.50;99.90;;;;;;5079580;28;20052;-53
2022/09/09 11:27:31;;;;;;;7.05;2.35;;;19.30;99.90;;;;;;5079608;28;20063;-52
2022/09/09 11:30:25;;;;;;;8.50;2.20;;;19.60;99.90;;;;;;5078931;28;20110;-52
2022/09/09 11:33:13;;;;;;;6.45;1.90;;;20.00;99.90;;;;;;5079687;28;20541;-51
2022/09/09 11:36:02;;;;;;;9.63;2.28;;;20.20;99.90;;;;;;5079541;28;20064;-53
2022/09/09 11:38:29;;;;;;;9.07;1.85;;;20.20;99.90;;;;;;5089523;28;20131;-53
2022/09/09 11:41:00;;;;;;;9.30;2.42;;;20.00;99.90;;;;;;5099740;28;20071;-53
2022/09/09 11:43:39;;;;;;;7.32;2.17;;;19.90;99.90;;;;;;5099372;28;20043;-53
2022/09/09 11:46:05;;;;;;;9.07;1.98;;;19.90;99.90;;;;;;5099269;28;20078;-52
2022/09/09 11:48:45;;;;;;;7.10;1.67;;;20.00;99.90;;;;;;5098075;28;20040;-52
2022/09/09 11:51:31;;;;;;;8.48;2.20;;;20.30;99.90;;;;;;5098693;28;20039;-51
2022/09/09 11:54:22;;;;;;;9.93;2.45;;;20.10;99.90;;;;;;5099517;28;20105;-51
2022/09/09 11:56:48;;;;;;;8.50;1.88;;;20.10;99.90;;;;;;5095085;28;20066;-53
2022/09/09 11:59:51;;;;;;;14.23;2.40;;;20.00;99.90;;;;;;5098792;28;20403;-53
2022/09/09 12:02:26;;;;;;;9.45;2.10;;;19.80;99.90;;;;;;5095857;28;20064;-51
2022/09/09 12:05:12;;;;;;;9.82;2.13;;;19.90;99.90;;;;;;5098860;28;20055;-50
2022/09/09 12:07:56;;;;;;;6.25;1.58;;;19.90;99.90;;;;;;5098587;28;20051;-52
2022/09/09 12:10:32;;;;;;;9.63;2.00;;;19.90;99.90;;;;;;5098578;28;20778;-52
2022/09/09 12:13:31;;;;;;;9.32;1.98;;;20.10;99.90;;;;;;5098526;28;20093;-49
2022/09/09 12:16:02;;;;;;;8.45;1.85;;;20.50;99.90;;;;;;5085157;28;20109;-52
2022/09/09 12:18:44;;;;;;;9.85;1.92;;;20.40;99.90;;;;;;5060814;28;20056;-54
2022/09/09 12:21:41;;;;;;;8.85;1.88;;;20.40;99.90;;;;;;5077990;28;20052;-51
2022/09/09 12:24:07;;;;;;;8.02;1.58;;;20.40;99.90;;;;;;5078684;28;20064;-52
2022/09/09 12:26:56;;;;;;;6.50;1.73;;;20.40;99.90;;;;;;5078431;28;20122;-50
2022/09/09 12:30:18;;;;;;;7.05;1.65;;;20.20;99.90;;;;;;5077892;28;20044;-53
2022/09/09 12:32:46;;;;;;;8.30;1.63;;;19.80;99.90;;;;;;5036076;28;20052;-53
2022/09/09 12:35:21;;;;;;;6.28;1.80;;;20.00;99.90;;;;;;5035762;28;20053;-53
2022/09/09 12:37:56;;;;;;;12.02;2.85;;;19.90;99.90;;;;;;5068873;28;20060;-53
2022/09/09 12:40:26;;;;;;;7.95;1.85;;;19.90;99.90;;;;;;5096934;28;20048;-53
2022/09/09 12:42:52;;;;;;;6.70;1.92;;;19.90;99.90;;;;;;5097768;28;20119;-49
2022/09/09 12:45:20;;;;;;;9.15;1.90;;;19.80;99.90;;;;;;5098805;28;20040;-51
2022/09/09 12:48:03;;;;;;;8.15;1.88;;;19.80;99.90;;;;;;5097829;28;20039;-52
2022/09/09 12:50:36;;;;;;;8.40;2.58;;;20.00;99.90;;;;;;5098086;28;20104;-53
2022/09/09 12:53:09;;;;;;;10.82;1.90;;;20.10;99.90;;;;;;5098378;28;20040;-53
2022/09/09 12:55:39;;;;;;;5.68;2.10;;;20.20;99.90;;;;;;5097657;28;20040;-51
2022/09/09 12:58:06;;;;;;;7.90;1.70;;;20.30;99.90;;;;;;5098504;28;20040;-53
2022/09/09 13:00:33;;;;;;;7.13;1.60;;;20.10;99.90;;;;;;5098078;28;20123;-52
2022/09/09 13:03:01;;;;;;;6.38;1.65;;;20.30;99.90;;;;;;5098102;28;20048;-51
2022/09/09 13:05:34;;;;;;;7.53;1.90;;;20.50;99.90;;;;;;5098076;28;20492;-53
2022/09/09 13:08:10;;;;;;;6.35;2.33;;;20.60;99.90;;;;;;5097653;28;20070;-52